Time,TemperatureF,DewpointF,PressureIn,WindDirection,WindDirectionDegrees,WindSpeedMPH,WindSpeedGustMPH,Humidity,HourlyPrecipIn,Conditions,Clouds,dailyrainin,SolarRadiationWatts/m^2,SoftwareType,DateUTC
2013-08-14 00:03:00,51.0,47.0,-100.00,WNW,293,3.0,7.0,85,0.00,,,0.84,0.000000,,2013-08-14 04:03:00,
2013-08-14 00:42:00,48.0,45.0,-100.00,WSW,247,1.0,2.0,90,0.00,,,0.84,0.000000,,2013-08-14 04:42:00,
2013-08-14 00:52:00,48.0,45.0,-100.00,WSW,247,1.0,2.0,90,0.00,,,0.84,0.000000,,2013-08-14 04:52:00,
2013-08-14 01:02:00,48.0,45.0,-100.00,WSW,247,1.0,2.0,90,0.00,,,0.84,0.000000,,2013-08-14 05:02:00,
2013-08-14 01:42:00,45.0,44.0,-100.00,SE,146,0.0,0.0,97,0.00,,,0.84,0.000000,,2013-08-14 05:42:00,
2013-08-14 01:52:00,45.0,44.0,-100.00,SE,146,0.0,0.0,97,0.00,,,0.84,0.000000,,2013-08-14 05:52:00,
2013-08-14 02:01:00,45.0,44.0,-100.00,SE,146,0.0,0.0,97,0.00,,,0.84,0.000000,,2013-08-14 06:01:00,
2013-08-14 02:42:00,45.0,44.0,-100.00,WNW,287,0.0,0.0,98,0.00,,,0.84,0.000000,,2013-08-14 06:42:00,
2013-08-14 02:52:00,45.0,44.0,-100.00,WNW,287,0.0,0.0,98,0.00,,,0.84,0.000000,,2013-08-14 06:52:00,
2013-08-14 03:01:00,45.0,44.0,-100.00,WNW,287,0.0,0.0,98,0.00,,,0.84,0.000000,,2013-08-14 07:01:00,
2013-08-14 03:42:00,44.0,43.0,-100.00,West,277,0.0,0.0,98,0.00,,,0.84,0.000000,,2013-08-14 07:42:00,
2013-08-14 03:52:00,44.0,43.0,-100.00,West,277,0.0,0.0,98,0.00,,,0.84,0.000000,,2013-08-14 07:52:00,
2013-08-14 04:01:00,44.0,43.0,-100.00,West,277,0.0,0.0,98,0.00,,,0.84,0.000000,,2013-08-14 08:01:00,
2013-08-14 04:42:00,45.0,44.0,-100.00,WSW,256,0.0,0.0,98,0.00,,,0.18,0.000000,,2013-08-14 08:42:00,
2013-08-14 04:52:00,45.0,44.0,-100.00,WSW,256,0.0,0.0,98,0.00,,,0.18,0.000000,,2013-08-14 08:52:00,
2013-08-14 05:02:00,45.0,44.0,-100.00,WSW,256,0.0,0.0,98,0.00,,,0.18,0.000000,,2013-08-14 09:02:00,
2013-08-14 05:43:00,47.0,46.0,-100.00,WNW,291,1.0,4.0,98,0.00,,,0.04,0.000000,,2013-08-14 09:43:00,
2013-08-14 05:53:00,47.0,46.0,-100.00,WNW,291,1.0,4.0,98,0.00,,,0.04,0.000000,,2013-08-14 09:53:00,
2013-08-14 06:03:00,47.0,46.0,-100.00,WNW,291,1.0,4.0,98,0.00,,,0.04,0.000000,,2013-08-14 10:03:00,
2013-08-14 06:43:00,48.0,47.0,-100.00,NW,308,1.0,2.0,98,0.00,,,0.00,0.000000,,2013-08-14 10:43:00,
2013-08-14 06:53:00,48.0,47.0,-100.00,NW,308,1.0,2.0,98,0.00,,,0.00,0.000000,,2013-08-14 10:53:00,
2013-08-14 07:02:00,48.0,47.0,-100.00,NW,308,1.0,2.0,98,0.00,,,0.00,0.000000,,2013-08-14 11:02:00,
2013-08-14 07:42:00,49.0,48.0,-100.00,West,281,2.0,4.0,98,0.00,,,0.00,9.000000,,2013-08-14 11:42:00,
2013-08-14 07:52:00,49.0,48.0,-100.00,West,281,2.0,4.0,98,0.00,,,0.00,9.000000,,2013-08-14 11:52:00,
2013-08-14 08:01:00,49.0,48.0,-100.00,West,281,2.0,4.0,98,0.00,,,0.00,9.000000,,2013-08-14 12:01:00,
2013-08-14 08:42:00,50.0,49.0,-100.00,WNW,292,4.0,7.0,98,0.00,,,0.00,59.000000,,2013-08-14 12:42:00,
2013-08-14 08:52:00,50.0,49.0,-100.00,WNW,292,4.0,7.0,98,0.00,,,0.00,59.000000,,2013-08-14 12:52:00,
2013-08-14 09:02:00,50.0,49.0,-100.00,WNW,292,4.0,7.0,98,0.00,,,0.00,59.000000,,2013-08-14 13:02:00,
2013-08-14 09:42:00,52.0,50.0,-100.00,WNW,293,4.0,7.0,94,0.00,,,0.00,125.000000,,2013-08-14 13:42:00,
2013-08-14 09:52:00,52.0,50.0,-100.00,WNW,293,4.0,7.0,94,0.00,,,0.00,125.000000,,2013-08-14 13:52:00,
2013-08-14 10:02:00,52.0,50.0,-100.00,WNW,293,4.0,7.0,94,0.00,,,0.00,125.000000,,2013-08-14 14:02:00,
2013-08-14 10:42:00,55.0,51.0,-100.00,WNW,298,5.0,11.0,86,0.00,,,0.00,185.000000,,2013-08-14 14:42:00,
2013-08-14 10:52:00,55.0,51.0,-100.00,WNW,298,5.0,11.0,86,0.00,,,0.00,185.000000,,2013-08-14 14:52:00,
2013-08-14 11:02:00,55.0,51.0,-100.00,WNW,298,5.0,11.0,86,0.00,,,0.00,185.000000,,2013-08-14 15:02:00,
2013-08-14 11:44:00,58.0,50.0,-100.00,NW,307,5.0,12.0,76,0.00,,,0.00,407.000000,,2013-08-14 15:44:00,
2013-08-14 11:57:00,58.0,50.0,-100.00,NW,307,5.0,12.0,76,0.00,,,0.00,407.000000,,2013-08-14 15:57:00,
2013-08-14 12:04:00,58.0,50.0,-100.00,NW,307,5.0,12.0,76,0.00,,,0.00,407.000000,,2013-08-14 16:04:00,
2013-08-14 12:43:00,62.0,51.0,-100.00,NW,311,5.0,12.0,67,0.00,,,0.00,567.000000,,2013-08-14 16:43:00,
2013-08-14 13:05:00,62.0,51.0,-100.00,NW,311,5.0,12.0,67,0.00,,,0.00,567.000000,,2013-08-14 17:05:00,
2013-08-14 13:07:00,64.0,52.0,-100.00,NW,306,4.0,11.0,64,0.00,,,0.00,670.000000,,2013-08-14 17:07:00,
2013-08-14 13:44:00,64.0,52.0,-100.00,NW,306,4.0,11.0,64,0.00,,,0.00,670.000000,,2013-08-14 17:44:00,
2013-08-14 13:55:00,64.0,52.0,-100.00,NW,306,4.0,11.0,64,0.00,,,0.00,670.000000,,2013-08-14 17:55:00,
2013-08-14 15:03:00,63.0,49.0,-100.00,NW,305,5.0,9.0,60,0.00,,,0.00,691.000000,,2013-08-14 19:03:00,
2013-08-14 15:42:00,67.0,48.0,-100.00,NW,309,6.0,14.0,51,0.00,,,0.00,915.000000,,2013-08-14 19:42:00,
2013-08-14 15:58:00,67.0,48.0,-100.00,NW,309,6.0,14.0,51,0.00,,,0.00,915.000000,,2013-08-14 19:58:00,
2013-08-14 16:49:00,64.0,47.0,-100.00,NW,320,4.0,8.0,54,0.00,,,0.00,699.000000,,2013-08-14 20:49:00,
2013-08-14 17:05:00,64.0,47.0,-100.00,NW,320,4.0,8.0,54,0.00,,,0.00,699.000000,,2013-08-14 21:05:00,
2013-08-14 17:45:00,65.0,49.0,-100.00,WNW,301,4.0,7.0,56,0.00,,,0.00,577.000000,,2013-08-14 21:45:00,
2013-08-14 17:55:00,65.0,49.0,-100.00,WNW,301,4.0,7.0,56,0.00,,,0.00,577.000000,,2013-08-14 21:55:00,
2013-08-14 18:04:00,65.0,49.0,-100.00,WNW,301,4.0,7.0,56,0.00,,,0.00,577.000000,,2013-08-14 22:04:00,
2013-08-14 18:44:00,62.0,47.0,-100.00,NW,311,3.0,5.0,58,0.00,,,0.00,364.000000,,2013-08-14 22:44:00,
2013-08-14 18:55:00,62.0,47.0,-100.00,NW,311,3.0,5.0,58,0.00,,,0.00,364.000000,,2013-08-14 22:55:00,
2013-08-14 19:06:00,62.0,47.0,-100.00,NW,311,3.0,5.0,58,0.00,,,0.00,364.000000,,2013-08-14 23:06:00,
2013-08-14 19:46:00,64.0,48.0,-100.00,North,350,2.0,3.0,56,0.00,,,0.00,359.000000,,2013-08-14 23:46:00,
2013-08-14 19:56:00,64.0,48.0,-100.00,North,350,2.0,3.0,56,0.00,,,0.00,359.000000,,2013-08-14 23:56:00,
2013-08-14 20:04:00,64.0,48.0,-100.00,North,350,2.0,3.0,56,0.00,,,0.00,359.000000,,2013-08-15 00:04:00,
2013-08-14 20:43:00,56.0,49.0,-100.00,WNW,302,1.0,4.0,76,0.00,,,0.00,97.000000,,2013-08-15 00:43:00,
2013-08-14 20:52:00,56.0,49.0,-100.00,WNW,302,1.0,4.0,76,0.00,,,0.00,97.000000,,2013-08-15 00:52:00,
2013-08-14 21:01:00,56.0,49.0,-100.00,WNW,302,1.0,4.0,76,0.00,,,0.00,97.000000,,2013-08-15 01:01:00,
2013-08-14 21:52:00,49.0,47.0,-100.00,ESE,104,0.0,0.0,92,0.00,,,0.00,2.000000,,2013-08-15 01:52:00,
2013-08-14 22:02:00,49.0,47.0,-100.00,ESE,104,0.0,0.0,92,0.00,,,0.00,2.000000,,2013-08-15 02:02:00,
2013-08-14 22:52:00,47.0,46.0,-100.00,ESE,110,0.0,0.0,97,0.00,,,0.00,0.000000,,2013-08-15 02:52:00,
2013-08-14 23:02:00,47.0,46.0,-100.00,ESE,110,0.0,0.0,97,0.00,,,0.00,0.000000,,2013-08-15 03:02:00,
2013-08-14 23:44:00,46.0,45.0,-100.00,ESE,114,0.0,0.0,98,0.00,,,0.00,0.000000,,2013-08-15 03:44:00,
2013-08-14 23:53:00,46.0,45.0,-100.00,ESE,114,0.0,0.0,98,0.00,,,0.00,0.000000,,2013-08-15 03:53:00,